KLGU/LGU METAR and TAF weather

Enter ICAO airport designator
Station Type Date Time Source
KLGU METAR 2019/02/17 07:51 UTC NOAA

KLGU 170751Z AUTO 31003KT 10SM OVC044 M04/M05 A2983 RMK AO2 SLP121 T10441050 $


Station Type Date Time Source
KLGU Decoded METAR 2019/02/17 07:51 UTC NOAA

LOGAN CACHE AIRPORT, UT, United States (KLGU) 41-47N 111-51W 1355M
Feb 17, 2019 - 02:51 AM EST / 2019.02.17 0751 UTC
Wind: from the NW (310 degrees) at 3 MPH (3 KT):0
Visibility: 10 mile(s):0
Sky conditions: overcast
Temperature: 24.1 F (-4.4 C)
Dew Point: 23.0 F (-5.0 C)
Relative Humidity: 95%
Pressure (altimeter): 29.83 in. Hg (1010 hPa)
ob: KLGU 170751Z AUTO 31003KT 10SM OVC044 M04/M05 A2983 RMK AO2 SLP121 T10441050
cycle: 8

Station Type Date Time Source
KLGU TAF 2019/02/17 06:36 UTC NOAA

TAF KLGU 170535Z 1706/1806 VRB03KT 6SM -SN BKN030 OVC040
TEMPO 1706/1707 3SM -SN BR BKN024 OVC030
FM170700 VRB04KT P6SM SCT030 OVC050
FM171700 VRB05KT P6SM SCT060 BKN090


Example: see airport list